createdAt,value
2018-04-10T00:00:14.235Z,28.90
2018-04-10T00:01:14.262Z,29.70
2018-04-10T00:02:14.300Z,29.40
2018-04-10T00:03:14.335Z,29.10
2018-04-10T00:04:14.370Z,30.30
2018-04-10T00:05:14.406Z,29.40
2018-04-10T00:06:14.447Z,30.10
2018-04-10T00:07:14.475Z,30.40
2018-04-10T00:08:14.512Z,29.90
2018-04-10T00:09:14.546Z,29.60
2018-04-10T00:10:14.582Z,30.10
2018-04-10T00:11:14.618Z,30.50
2018-04-10T00:12:14.654Z,30.20
2018-04-10T00:13:14.692Z,30.10
2018-04-10T00:14:14.725Z,30.00
2018-04-10T00:15:14.761Z,30.30
2018-04-10T00:16:14.795Z,29.50
2018-04-10T00:17:14.830Z,29.80
2018-04-10T00:18:14.865Z,30.00
2018-04-10T00:19:14.907Z,29.40
2018-04-10T00:20:14.937Z,30.30
2018-04-10T00:21:14.975Z,29.30
2018-04-10T00:22:15.007Z,29.60
2018-04-10T00:23:15.044Z,30.40
2018-04-10T00:24:15.080Z,29.90
2018-04-10T00:25:15.114Z,31.10
2018-04-10T00:26:15.148Z,29.50
2018-04-10T00:27:15.185Z,29.70
2018-04-10T00:28:15.228Z,29.90
2018-04-10T00:29:15.254Z,29.30
2018-04-10T00:30:15.302Z,29.70
2018-04-10T00:31:15.326Z,29.30
2018-04-10T00:32:15.362Z,30.20
2018-04-10T00:33:15.396Z,29.90
2018-04-10T00:34:15.454Z,30.80
2018-04-10T00:35:15.468Z,30.10
2018-04-10T00:36:15.504Z,31.20
2018-04-10T00:37:15.539Z,31.10
2018-04-10T00:38:15.574Z,30.50
2018-04-10T00:39:15.610Z,31.50
2018-04-10T00:40:15.645Z,30.90
2018-04-10T00:41:15.680Z,29.20
2018-04-10T00:42:15.716Z,29.80
2018-04-10T00:43:15.751Z,31.30
2018-04-10T00:44:15.789Z,30.00
2018-04-10T00:45:15.819Z,29.80
2018-04-10T00:46:15.854Z,30.20
2018-04-10T00:47:15.891Z,29.60
2018-04-10T00:48:15.926Z,29.40
2018-04-10T00:49:15.960Z,29.70
2018-04-10T00:50:15.998Z,29.70
2018-04-10T00:51:16.032Z,30.00
2018-04-10T00:52:16.070Z,29.80
2018-04-10T00:53:16.102Z,29.60
2018-04-10T00:54:16.137Z,29.90
2018-04-10T00:55:16.174Z,29.00
2018-04-10T00:56:16.209Z,29.00
2018-04-10T00:57:16.246Z,28.00
2018-04-10T00:58:16.304Z,28.20
2018-04-10T00:59:16.323Z,27.40
2018-04-10T01:00:16.351Z,27.00
2018-04-10T01:01:16.389Z,27.70
2018-04-10T01:02:16.423Z,27.60
2018-04-10T01:03:16.465Z,28.10
2018-04-10T01:04:16.492Z,29.70
2018-04-10T01:05:16.528Z,29.60
2018-04-10T01:06:16.562Z,30.30
2018-04-10T01:07:16.600Z,28.10
2018-04-10T01:08:16.637Z,28.50
2018-04-10T01:09:16.668Z,28.50
2018-04-10T01:10:16.707Z,29.30
2018-04-10T01:11:16.741Z,29.40
2018-04-10T01:12:16.777Z,30.00
2018-04-10T01:13:16.811Z,29.40
2018-04-10T01:14:16.846Z,28.90
2018-04-10T01:15:16.882Z,29.30
2018-04-10T01:16:16.918Z,28.90
2018-04-10T01:17:16.953Z,30.00
2018-04-10T01:18:16.989Z,29.20
2018-04-10T01:19:17.021Z,29.30
2018-04-10T01:20:17.058Z,30.00
2018-04-10T01:21:17.091Z,30.10
2018-04-10T01:22:17.128Z,30.40
2018-04-10T01:23:17.162Z,29.70
2018-04-10T01:24:17.198Z,29.20
2018-04-10T01:25:17.233Z,29.20
2018-04-10T01:26:17.272Z,30.30
2018-04-10T01:27:17.312Z,29.00
2018-04-10T01:28:17.339Z,28.70
2018-04-10T01:29:17.375Z,30.10
2018-04-10T01:30:17.412Z,30.00
2018-04-10T01:31:17.445Z,29.50
2018-04-10T01:32:17.478Z,29.50
2018-04-10T01:33:17.513Z,29.30
2018-04-10T01:34:17.550Z,29.20
2018-04-10T01:35:17.584Z,30.70
2018-04-10T01:36:17.624Z,29.30
2018-04-10T01:37:17.655Z,30.30
2018-04-10T01:38:17.689Z,29.90
2018-04-10T01:39:17.726Z,31.00
2018-04-10T01:40:17.761Z,31.40
2018-04-10T01:41:17.794Z,31.50
2018-04-10T01:42:17.870Z,29.30
2018-04-10T01:43:17.917Z,29.80
2018-04-10T01:44:17.901Z,30.90
2018-04-10T01:45:17.986Z,31.30
2018-04-10T01:46:17.971Z,30.50
2018-04-10T01:47:18.007Z,31.30
2018-04-10T01:48:18.042Z,29.60
2018-04-10T01:49:18.075Z,29.10
2018-04-10T01:50:18.110Z,30.40
2018-04-10T01:51:18.146Z,30.50
2018-04-10T01:52:18.180Z,31.40
2018-04-10T01:53:18.215Z,31.50
2018-04-10T01:54:18.251Z,30.90
2018-04-10T01:55:18.288Z,33.50
2018-04-10T01:56:18.321Z,31.70
2018-04-10T01:57:18.354Z,31.50
2018-04-10T01:58:18.390Z,32.80
2018-04-10T01:59:18.425Z,31.60
2018-04-10T02:00:18.460Z,34.20
2018-04-10T02:01:18.494Z,33.70
2018-04-10T02:02:18.529Z,32.40
2018-04-10T02:03:18.565Z,32.30
2018-04-10T02:04:18.600Z,31.90
2018-04-10T02:05:18.634Z,32.10
2018-04-10T02:06:18.671Z,32.90
2018-04-10T02:07:18.756Z,31.40
2018-04-10T02:08:18.763Z,32.20
2018-04-10T02:09:18.775Z,32.20
2018-04-10T02:10:18.828Z,32.90
2018-04-10T02:11:18.864Z,32.20
2018-04-10T02:12:18.899Z,33.20
2018-04-10T02:13:18.933Z,33.60
2018-04-10T02:14:18.968Z,34.50
2018-04-10T02:15:19.000Z,36.00
2018-04-10T02:16:19.038Z,34.80
2018-04-10T02:17:19.072Z,33.60
2018-04-10T02:18:19.107Z,34.90
2018-04-10T02:19:19.144Z,34.20
2018-04-10T02:20:19.186Z,34.40
2018-04-10T02:21:19.215Z,35.70
2018-04-10T02:22:19.247Z,33.90
2018-04-10T02:23:19.288Z,34.50
2018-04-10T02:24:19.318Z,34.10
2018-04-10T02:25:19.353Z,34.30
2018-04-10T02:26:19.387Z,32.60
2018-04-10T02:27:19.421Z,33.80
2018-04-10T02:28:19.455Z,34.40
2018-04-10T02:29:19.488Z,34.50
2018-04-10T02:30:19.526Z,34.50
2018-04-10T02:31:19.559Z,33.40
2018-04-10T02:32:19.596Z,35.20
2018-04-10T02:33:19.635Z,33.30
2018-04-10T02:34:19.662Z,34.90
2018-04-10T02:35:19.697Z,33.60
2018-04-10T02:36:19.733Z,34.60
2018-04-10T02:37:19.766Z,33.70
2018-04-10T02:38:19.801Z,33.90
2018-04-10T02:39:19.846Z,33.40
2018-04-10T02:40:19.871Z,33.80
2018-04-10T02:41:19.904Z,33.30
2018-04-10T02:42:19.940Z,33.10
2018-04-10T02:43:19.976Z,33.10
2018-04-10T02:44:20.011Z,33.80
2018-04-10T02:45:20.045Z,33.40
2018-04-10T02:46:20.077Z,34.20
2018-04-10T02:47:20.113Z,33.70
2018-04-10T02:48:20.149Z,33.80
2018-04-10T02:49:20.191Z,34.40
2018-04-10T02:50:20.267Z,33.70
2018-04-10T02:51:20.252Z,34.10
2018-04-10T02:52:20.287Z,33.30
2018-04-10T02:53:20.319Z,33.10
2018-04-10T02:54:20.355Z,34.30
2018-04-10T02:55:20.390Z,32.90
2018-04-10T02:56:20.425Z,34.00
2018-04-10T02:57:20.459Z,34.30
2018-04-10T02:58:20.494Z,34.10
2018-04-10T02:59:20.529Z,34.10
2018-04-10T03:00:20.563Z,35.30
2018-04-10T03:01:20.596Z,36.00
2018-04-10T03:02:20.631Z,36.10
2018-04-10T03:03:20.666Z,34.80
2018-04-10T03:04:20.703Z,36.10
2018-04-10T03:05:20.733Z,36.00
2018-04-10T03:06:20.769Z,34.40
2018-04-10T03:07:20.805Z,34.80
2018-04-10T03:08:20.838Z,35.80
2018-04-10T03:09:20.880Z,34.90
2018-04-10T03:10:20.907Z,35.40
2018-04-10T03:11:20.942Z,33.40
2018-04-10T03:12:20.977Z,34.30
2018-04-10T03:13:21.010Z,34.10
2018-04-10T03:14:21.048Z,33.60
2018-04-10T03:15:21.081Z,34.10
2018-04-10T03:16:21.114Z,35.20
2018-04-10T03:17:21.149Z,34.90
2018-04-10T03:18:21.181Z,35.10
2018-04-10T03:19:21.217Z,34.00
2018-04-10T03:20:21.251Z,33.00
2018-04-10T03:21:21.286Z,34.40
2018-04-10T03:22:21.324Z,35.00
2018-04-10T03:23:21.353Z,34.70
2018-04-10T03:24:21.393Z,35.10
2018-04-10T03:25:21.422Z,34.30
2018-04-10T03:26:21.458Z,34.10
2018-04-10T03:27:21.492Z,34.90
2018-04-10T03:28:21.534Z,36.60
2018-04-10T03:29:21.559Z,36.50
2018-04-10T03:30:21.596Z,35.10
2018-04-10T03:31:21.628Z,36.10
2018-04-10T03:32:21.663Z,36.60
2018-04-10T03:33:21.699Z,35.00
2018-04-10T03:34:21.731Z,35.90
2018-04-10T03:35:21.766Z,34.70
2018-04-10T03:36:21.800Z,34.50
2018-04-10T03:37:21.832Z,36.70
2018-04-10T03:38:21.867Z,35.30
2018-04-10T03:39:21.901Z,34.40
2018-04-10T03:40:21.936Z,34.00
2018-04-10T03:41:21.969Z,35.30
2018-04-10T03:42:22.011Z,34.00
2018-04-10T03:43:22.038Z,35.00
2018-04-10T03:44:22.073Z,35.50
2018-04-10T03:45:22.106Z,35.30
2018-04-10T03:46:22.177Z,35.40
2018-04-10T03:47:22.177Z,35.30
2018-04-10T03:48:22.208Z,36.20
2018-04-10T03:49:22.245Z,35.40
2018-04-10T03:50:22.277Z,35.20
2018-04-10T03:51:22.292Z,36.70
2018-04-10T03:52:22.326Z,36.40
2018-04-10T03:53:22.361Z,36.50
2018-04-10T03:54:22.394Z,37.50
2018-04-10T03:55:22.429Z,36.70
2018-04-10T03:56:22.463Z,37.50
2018-04-10T03:57:22.499Z,37.00
2018-04-10T03:58:22.540Z,36.80
2018-04-10T03:59:22.565Z,36.40
2018-04-10T04:00:22.600Z,37.50
2018-04-10T04:01:22.638Z,37.40
2018-04-10T04:02:22.669Z,37.50
2018-04-10T04:03:22.702Z,37.60
2018-04-10T04:04:22.738Z,37.80
2018-04-10T04:05:22.769Z,38.00
2018-04-10T04:06:22.804Z,35.90
2018-04-10T04:07:22.839Z,36.90
2018-04-10T04:08:22.874Z,37.00
2018-04-10T04:09:22.919Z,37.80
2018-04-10T04:10:22.950Z,36.80
2018-04-10T04:11:22.974Z,37.40
2018-04-10T04:12:23.008Z,37.50
2018-04-10T04:13:23.040Z,37.10
2018-04-10T04:14:23.078Z,36.00
2018-04-10T04:15:23.112Z,38.10
2018-04-10T04:16:23.144Z,37.40
2018-04-10T04:17:23.179Z,37.10
2018-04-10T04:18:23.212Z,37.80
2018-04-10T04:19:23.247Z,37.60
2018-04-10T04:20:23.280Z,37.90
2018-04-10T04:21:23.314Z,37.70
2018-04-10T04:22:23.348Z,38.70
2018-04-10T04:23:23.383Z,38.10
2018-04-10T04:24:23.431Z,38.00
2018-04-10T04:25:23.452Z,38.40
2018-04-10T04:26:23.485Z,39.30
2018-04-10T04:27:23.518Z,37.60
2018-04-10T04:28:23.554Z,38.20
2018-04-10T04:29:23.588Z,39.50
2018-04-10T04:30:23.620Z,39.70
2018-04-10T04:31:23.653Z,39.10
2018-04-10T04:32:23.688Z,39.70
2018-04-10T04:33:23.722Z,40.60
2018-04-10T04:34:23.755Z,40.30
2018-04-10T04:35:23.789Z,40.10
2018-04-10T04:36:23.824Z,39.70
2018-04-10T04:37:23.859Z,40.30
2018-04-10T04:38:23.891Z,40.20
2018-04-10T04:39:23.925Z,39.60
2018-04-10T04:40:23.958Z,38.10
2018-04-10T04:41:23.997Z,39.50
2018-04-10T04:42:24.025Z,38.60
2018-04-10T04:43:24.060Z,37.80
2018-04-10T04:44:24.094Z,38.70
2018-04-10T04:45:24.128Z,37.70
2018-04-10T04:46:24.161Z,39.20
2018-04-10T04:47:24.194Z,38.20
2018-04-10T04:48:24.229Z,38.80
2018-04-10T04:49:24.262Z,38.30
2018-04-10T04:50:24.295Z,38.20
2018-04-10T04:51:24.331Z,38.30
2018-04-10T04:52:24.364Z,37.70
2018-04-10T04:53:24.411Z,38.30
2018-04-10T04:54:24.430Z,39.40
2018-04-10T04:55:24.465Z,38.30
2018-04-10T04:56:24.497Z,37.70
2018-04-10T04:57:24.539Z,37.40
2018-04-10T04:58:24.564Z,37.00
2018-04-10T04:59:24.599Z,37.90
2018-04-10T05:00:24.636Z,37.40
2018-04-10T05:01:24.674Z,37.30
2018-04-10T05:02:24.700Z,36.90
2018-04-10T05:03:24.735Z,36.70
2018-04-10T05:04:24.769Z,38.40
2018-04-10T05:05:24.809Z,37.60
2018-04-10T05:06:24.838Z,37.50
2018-04-10T05:07:24.869Z,36.50
2018-04-10T05:08:24.909Z,37.00
2018-04-10T05:09:24.940Z,38.70
2018-04-10T05:10:24.971Z,37.40
2018-04-10T05:11:25.005Z,38.70
2018-04-10T05:12:25.041Z,38.30
2018-04-10T05:13:25.072Z,37.80
2018-04-10T05:14:25.108Z,37.40
2018-04-10T05:15:25.183Z,38.00
2018-04-10T05:16:25.277Z,38.50
2018-04-10T05:17:25.208Z,38.40
2018-04-10T05:18:25.242Z,36.40
2018-04-10T05:19:25.278Z,38.50
2018-04-10T05:20:25.312Z,37.20
2018-04-10T05:21:25.348Z,36.90
2018-04-10T05:22:25.379Z,35.80
2018-04-10T05:23:25.413Z,35.80
2018-04-10T05:24:25.446Z,35.80
2018-04-10T05:25:25.490Z,37.10
2018-04-10T05:26:25.514Z,35.60
2018-04-10T05:27:25.547Z,34.90
2018-04-10T05:28:25.583Z,33.50
2018-04-10T05:29:25.632Z,33.20
2018-04-10T05:30:25.650Z,33.40
2018-04-10T05:31:25.687Z,34.60
2018-04-10T05:32:25.719Z,33.40
2018-04-10T05:33:25.751Z,35.10
2018-04-10T05:34:25.786Z,35.40
2018-04-10T05:35:25.820Z,36.20
2018-04-10T05:36:25.856Z,35.60
2018-04-10T05:37:25.889Z,37.00
2018-04-10T05:38:25.924Z,37.10
2018-04-10T05:39:25.959Z,38.50
2018-04-10T05:40:25.992Z,35.30
2018-04-10T05:41:26.026Z,34.30
2018-04-10T05:42:26.060Z,35.30
2018-04-10T05:43:26.095Z,35.40
2018-04-10T05:44:26.129Z,37.10
2018-04-10T05:45:26.163Z,36.60
2018-04-10T05:46:26.198Z,35.30
2018-04-10T05:47:26.235Z,38.60
2018-04-10T05:48:26.275Z,35.70
2018-04-10T05:49:26.301Z,36.20
2018-04-10T05:50:26.336Z,34.90
2018-04-10T05:51:26.373Z,34.90
2018-04-10T05:52:26.413Z,33.80
2018-04-10T05:53:26.438Z,33.90
2018-04-10T05:54:26.473Z,32.70
2018-04-10T05:55:26.508Z,32.90
2018-04-10T05:56:26.543Z,33.80
2018-04-10T05:57:26.576Z,34.60
2018-04-10T05:58:26.610Z,34.00
2018-04-10T05:59:26.650Z,33.90
2018-04-10T06:00:26.683Z,32.60
2018-04-10T06:01:26.714Z,34.50
2018-04-10T06:02:26.751Z,32.20
2018-04-10T06:03:26.786Z,33.00
2018-04-10T06:04:26.821Z,32.90
2018-04-10T06:05:26.854Z,32.40
2018-04-10T06:06:26.890Z,33.00
2018-04-10T06:07:26.925Z,31.80
2018-04-10T06:08:26.960Z,32.50
2018-04-10T06:09:26.995Z,31.20
2018-04-10T06:10:27.031Z,31.10
2018-04-10T06:11:27.065Z,30.30
2018-04-10T06:12:27.101Z,31.30
2018-04-10T06:13:27.135Z,30.20
2018-04-10T06:14:27.171Z,30.30
2018-04-10T06:15:27.208Z,30.10
2018-04-10T06:16:27.241Z,29.30
2018-04-10T06:17:27.277Z,30.80
2018-04-10T06:18:27.313Z,31.00
2018-04-10T06:19:27.348Z,30.10
2018-04-10T06:20:27.385Z,30.80
2018-04-10T06:21:27.437Z,30.70
2018-04-10T06:22:27.455Z,30.20
2018-04-10T06:23:27.492Z,29.60
2018-04-10T06:24:27.528Z,30.00
2018-04-10T06:25:27.571Z,30.10
2018-04-10T06:26:27.598Z,30.10
2018-04-10T06:27:27.635Z,28.70
2018-04-10T06:28:27.672Z,28.60
2018-04-10T06:29:27.707Z,28.70
2018-04-10T06:30:27.743Z,28.40
2018-04-10T06:31:27.778Z,29.20
2018-04-10T06:32:27.814Z,28.60
2018-04-10T06:33:27.848Z,29.20
2018-04-10T06:34:27.886Z,28.80
2018-04-10T06:35:27.922Z,28.60
2018-04-10T06:36:27.958Z,29.70
2018-04-10T06:37:28.015Z,28.20
2018-04-10T06:38:28.030Z,28.70
2018-04-10T06:39:28.068Z,28.60
2018-04-10T06:40:28.107Z,29.60
2018-04-10T06:41:28.140Z,29.70
2018-04-10T06:42:28.180Z,29.20
2018-04-10T06:43:28.213Z,29.30
2018-04-10T06:44:28.252Z,29.30
2018-04-10T06:45:28.287Z,29.30
2018-04-10T06:46:28.323Z,29.20
2018-04-10T06:47:28.361Z,29.40
2018-04-10T06:48:28.397Z,28.50
2018-04-10T06:49:28.433Z,28.30
2018-04-10T06:50:28.469Z,28.00
2018-04-10T06:51:28.510Z,27.70
2018-04-10T06:52:28.542Z,28.10
2018-04-10T06:53:28.579Z,27.90
2018-04-10T06:54:28.618Z,27.70
2018-04-10T06:55:28.654Z,27.80
2018-04-10T06:56:28.692Z,27.60
2018-04-10T06:57:28.725Z,27.90
2018-04-10T06:58:28.763Z,27.40
2018-04-10T06:59:28.798Z,27.20
2018-04-10T07:00:28.847Z,26.40
2018-04-10T07:01:28.871Z,27.00
2018-04-10T07:02:28.910Z,26.80
2018-04-10T07:03:28.953Z,27.20
2018-04-10T07:04:28.986Z,26.30
2018-04-10T07:05:29.018Z,26.40
2018-04-10T07:06:29.055Z,26.50
2018-04-10T07:07:29.092Z,27.30
2018-04-10T07:08:29.129Z,27.20
2018-04-10T07:09:29.164Z,25.80
2018-04-10T07:10:29.202Z,26.30
2018-04-10T07:11:29.245Z,25.70
2018-04-10T07:12:29.277Z,26.70
2018-04-10T07:13:29.312Z,26.00
2018-04-10T07:14:29.351Z,26.70
2018-04-10T07:15:29.389Z,26.40
2018-04-10T07:16:29.424Z,26.00
2018-04-10T07:17:29.460Z,26.70
2018-04-10T07:18:29.496Z,27.80
2018-04-10T07:19:29.535Z,27.90
2018-04-10T07:20:29.571Z,28.40
2018-04-10T07:21:29.622Z,28.00
2018-04-10T07:22:29.643Z,27.30
2018-04-10T07:23:29.681Z,27.40
2018-04-10T07:24:29.716Z,28.00
2018-04-10T07:25:29.754Z,28.80
2018-04-10T07:26:29.791Z,29.30
2018-04-10T07:27:29.829Z,29.00
2018-04-10T07:28:29.866Z,28.70
2018-04-10T07:29:29.903Z,28.70
2018-04-10T07:30:29.938Z,28.70
2018-04-10T07:31:29.977Z,29.20
2018-04-10T07:32:30.012Z,28.80
2018-04-10T07:33:30.052Z,27.90
2018-04-10T07:34:30.090Z,28.60
2018-04-10T07:35:30.124Z,28.80
2018-04-10T07:36:30.162Z,29.30
2018-04-10T07:37:30.198Z,29.40
2018-04-10T07:38:30.235Z,28.70
2018-04-10T07:39:30.271Z,29.80
2018-04-10T07:40:30.308Z,30.10
2018-04-10T07:41:30.346Z,28.70
2018-04-10T07:42:30.382Z,29.10
2018-04-10T07:43:30.420Z,29.70
2018-04-10T07:44:30.457Z,29.20
2018-04-10T07:45:30.492Z,29.00
2018-04-10T07:46:30.530Z,29.10
2018-04-10T07:47:30.572Z,29.00
2018-04-10T07:48:30.607Z,30.30
2018-04-10T07:49:30.650Z,29.60
2018-04-10T07:50:30.678Z,30.50
2018-04-10T07:51:30.717Z,29.60
2018-04-10T07:52:30.754Z,29.20
2018-04-10T07:53:30.840Z,29.70
2018-04-10T07:54:30.828Z,29.60
2018-04-10T07:55:30.866Z,28.60
2018-04-10T07:56:30.902Z,30.70
2018-04-10T07:57:30.939Z,29.80
2018-04-10T07:58:30.980Z,30.20
2018-04-10T07:59:31.014Z,30.10
2018-04-10T08:00:31.054Z,29.30
2018-04-10T08:01:31.089Z,29.50
2018-04-10T08:02:31.133Z,29.70
2018-04-10T08:03:31.199Z,29.40
2018-04-10T08:04:31.201Z,29.20
2018-04-10T08:05:31.238Z,30.00
2018-04-10T08:06:31.278Z,29.40
2018-04-10T08:07:31.315Z,29.00
2018-04-10T08:08:31.383Z,28.70
2018-04-10T08:09:31.390Z,28.90
2018-04-10T08:10:31.435Z,28.10
2018-04-10T08:11:31.464Z,29.90
2018-04-10T08:12:31.502Z,28.20
2018-04-10T08:13:31.541Z,28.80
2018-04-10T08:14:31.578Z,28.30
2018-04-10T08:15:31.627Z,28.50
2018-04-10T08:16:31.653Z,28.00
2018-04-10T08:17:31.690Z,27.90
2018-04-10T08:18:31.729Z,27.60
2018-04-10T08:19:31.817Z,27.80
2018-04-10T08:20:31.803Z,27.40
2018-04-10T08:21:31.845Z,27.60
2018-04-10T08:22:31.878Z,27.60
2018-04-10T08:23:31.917Z,29.40
2018-04-10T08:24:31.955Z,26.70
2018-04-10T08:25:31.991Z,26.70
2018-04-10T08:26:32.030Z,26.90
2018-04-10T08:27:32.067Z,27.30
2018-04-10T08:28:32.105Z,27.70
2018-04-10T08:29:32.156Z,27.50
2018-04-10T08:30:32.182Z,29.40
2018-04-10T08:31:32.219Z,27.20
2018-04-10T08:32:32.257Z,26.30
2018-04-10T08:33:32.295Z,25.50
2018-04-10T08:34:32.335Z,24.00
2018-04-10T08:35:32.374Z,24.80
2018-04-10T08:36:32.410Z,25.50
2018-04-10T08:37:32.450Z,25.20
2018-04-10T08:38:32.485Z,25.00
2018-04-10T08:39:32.524Z,26.20
2018-04-10T08:40:32.570Z,25.30
2018-04-10T08:41:32.600Z,23.40
2018-04-10T08:42:32.650Z,23.90
2018-04-10T08:43:32.685Z,23.80
2018-04-10T08:44:32.716Z,23.20
2018-04-10T08:45:32.803Z,24.00
2018-04-10T08:46:32.790Z,23.60
2018-04-10T08:47:32.830Z,23.00
2018-04-10T08:48:32.868Z,23.30
2018-04-10T08:49:32.913Z,23.20
2018-04-10T08:50:32.990Z,23.50
2018-04-10T08:51:32.992Z,22.30
2018-04-10T08:52:33.022Z,21.50
2018-04-10T08:53:33.066Z,21.30
2018-04-10T08:54:33.099Z,21.10
2018-04-10T08:55:33.139Z,20.70
2018-04-10T08:56:33.178Z,20.20
2018-04-10T08:57:33.216Z,20.50
2018-04-10T08:58:33.256Z,20.00
2018-04-10T08:59:33.294Z,20.50
2018-04-10T09:00:33.331Z,20.90
2018-04-10T09:01:33.370Z,18.70
2018-04-10T09:02:33.410Z,18.70
2018-04-10T09:03:33.449Z,18.10
2018-04-10T09:04:33.488Z,18.90
2018-04-10T09:05:33.527Z,18.50
2018-04-10T09:06:33.565Z,18.70
2018-04-10T09:07:33.611Z,16.80
2018-04-10T09:08:33.644Z,17.70
2018-04-10T09:09:33.682Z,16.80
2018-04-10T09:10:33.720Z,15.70
2018-04-10T09:11:33.764Z,15.30
2018-04-10T09:12:33.798Z,15.90
2018-04-10T09:13:33.845Z,15.40
2018-04-10T09:14:33.879Z,16.30
2018-04-10T09:15:33.917Z,16.50
2018-04-10T09:16:33.955Z,15.80
2018-04-10T09:17:33.995Z,15.70
2018-04-10T09:18:34.034Z,15.50
2018-04-10T09:19:34.074Z,15.30
2018-04-10T09:20:34.114Z,15.50
2018-04-10T09:21:34.153Z,16.20
2018-04-10T09:22:34.198Z,15.60
2018-04-10T09:23:34.232Z,16.00
2018-04-10T09:24:34.271Z,16.40
2018-04-10T09:25:34.309Z,16.30
2018-04-10T09:26:34.351Z,15.40
2018-04-10T09:27:34.389Z,16.00
2018-04-10T09:28:34.429Z,16.10
2018-04-10T09:29:34.469Z,15.90
2018-04-10T09:30:34.508Z,15.50
2018-04-10T09:31:34.547Z,16.00
2018-04-10T09:32:34.591Z,16.70
2018-04-10T09:33:34.630Z,16.10
2018-04-10T09:34:34.667Z,16.90
2018-04-10T09:35:34.707Z,16.20
2018-04-10T09:36:34.747Z,16.10
2018-04-10T09:37:34.786Z,16.20
2018-04-10T09:38:34.828Z,16.30
2018-04-10T09:39:34.867Z,16.30
2018-04-10T09:40:34.911Z,16.10
2018-04-10T09:41:34.946Z,16.50
2018-04-10T09:42:34.988Z,16.50
2018-04-10T09:43:35.033Z,16.60
2018-04-10T09:44:35.070Z,15.90
2018-04-10T09:45:35.106Z,16.60
2018-04-10T09:46:35.148Z,15.50
2018-04-10T09:47:35.188Z,16.10
2018-04-10T09:48:35.229Z,16.00
2018-04-10T09:49:35.269Z,16.40
2018-04-10T09:50:35.318Z,16.60
2018-04-10T09:51:35.351Z,16.20
2018-04-10T09:52:35.390Z,16.50
2018-04-10T09:53:35.430Z,16.20
2018-04-10T09:54:35.486Z,15.90
2018-04-10T09:55:35.517Z,16.00
2018-04-10T09:56:35.552Z,16.60
2018-04-10T09:57:35.593Z,16.60
2018-04-10T09:58:35.638Z,16.50
2018-04-10T09:59:35.673Z,16.60
2018-04-10T10:00:35.714Z,17.40
2018-04-10T10:01:35.752Z,16.10
2018-04-10T10:02:35.794Z,16.80
2018-04-10T10:03:35.837Z,17.30
2018-04-10T10:04:35.878Z,16.40
2018-04-10T10:05:35.925Z,17.10
2018-04-10T10:06:35.958Z,17.10
2018-04-10T10:07:36.048Z,17.80
2018-04-10T10:08:36.040Z,17.30
2018-04-10T10:09:36.080Z,16.80
2018-04-10T10:10:36.123Z,16.70
2018-04-10T10:11:36.163Z,16.80
2018-04-10T10:12:36.203Z,17.40
2018-04-10T10:13:36.246Z,17.10
2018-04-10T10:14:36.287Z,17.50
2018-04-10T10:15:36.324Z,17.70
2018-04-10T10:16:36.366Z,18.80
2018-04-10T10:17:36.406Z,20.70
2018-04-10T10:18:36.447Z,20.30
2018-04-10T10:19:36.492Z,20.00
2018-04-10T10:20:36.528Z,19.20
2018-04-10T10:21:36.572Z,21.00
2018-04-10T10:22:36.611Z,18.70
2018-04-10T10:23:36.652Z,18.30
2018-04-10T10:24:36.711Z,21.30
2018-04-10T10:25:36.734Z,20.60
2018-04-10T10:26:36.775Z,21.80
2018-04-10T10:27:36.823Z,22.60
2018-04-10T10:28:36.909Z,21.50
2018-04-10T10:29:36.901Z,21.70
2018-04-10T10:30:36.938Z,21.00
2018-04-10T10:31:36.981Z,21.90
2018-04-10T10:32:37.021Z,22.20
2018-04-10T10:33:37.064Z,22.10
2018-04-10T10:34:37.105Z,22.10
2018-04-10T10:35:37.145Z,22.40
2018-04-10T10:36:37.188Z,21.40
2018-04-10T10:37:37.226Z,21.70
2018-04-10T10:38:37.268Z,21.90
2018-04-10T10:39:37.309Z,21.50
2018-04-10T10:40:37.352Z,20.80
2018-04-10T10:41:37.392Z,20.20
2018-04-10T10:42:37.432Z,21.10
2018-04-10T10:43:37.476Z,21.40
2018-04-10T10:44:37.515Z,21.20
2018-04-10T10:45:37.558Z,21.60
2018-04-10T10:46:37.598Z,20.00
2018-04-10T10:47:37.640Z,20.00
2018-04-10T10:48:37.682Z,20.40
2018-04-10T10:49:37.722Z,20.10
2018-04-10T10:50:37.764Z,19.40
2018-04-10T10:51:37.808Z,18.80
2018-04-10T10:52:37.849Z,21.00
2018-04-10T10:53:37.897Z,19.60
2018-04-10T10:54:37.931Z,19.90
2018-04-10T10:55:37.973Z,19.20
2018-04-10T10:56:38.014Z,19.80
2018-04-10T10:57:38.056Z,21.40
2018-04-10T10:58:38.104Z,20.40
2018-04-10T10:59:38.148Z,22.00
2018-04-10T11:00:38.192Z,21.20
2018-04-10T11:01:38.224Z,20.50
2018-04-10T11:02:38.268Z,21.40
2018-04-10T11:03:38.307Z,21.20
2018-04-10T11:04:38.352Z,22.00
2018-04-10T11:05:38.393Z,20.80
2018-04-10T11:06:38.430Z,20.90
2018-04-10T11:07:38.471Z,21.00
2018-04-10T11:08:38.512Z,19.50
2018-04-10T11:09:38.590Z,20.00
2018-04-10T11:10:38.595Z,21.30
2018-04-10T11:11:38.639Z,21.80
2018-04-10T11:12:38.678Z,21.60
2018-04-10T11:13:38.720Z,22.00
2018-04-10T11:14:38.762Z,21.60
2018-04-10T11:15:38.805Z,21.50
2018-04-10T11:16:38.849Z,21.40
2018-04-10T11:17:38.906Z,22.60
2018-04-10T11:18:38.930Z,22.10
2018-04-10T11:19:38.972Z,23.00
2018-04-10T11:20:39.014Z,21.50
2018-04-10T11:21:39.053Z,22.40
2018-04-10T11:22:39.098Z,21.70
2018-04-10T11:23:39.140Z,20.90
2018-04-10T11:24:39.181Z,21.70
2018-04-10T11:25:39.226Z,20.80
2018-04-10T11:26:39.265Z,23.70
2018-04-10T11:27:39.306Z,21.60
2018-04-10T11:28:39.351Z,21.70
2018-04-10T11:29:39.391Z,21.10
2018-04-10T11:30:39.435Z,21.40
2018-04-10T11:31:39.476Z,21.00
2018-04-10T11:32:39.520Z,20.80
2018-04-10T11:33:39.562Z,20.70
2018-04-10T11:34:39.609Z,20.60
2018-04-10T11:35:39.651Z,20.90
2018-04-10T11:36:39.689Z,19.90
2018-04-10T11:37:39.733Z,22.50
2018-04-10T11:38:39.774Z,22.80
2018-04-10T11:39:39.816Z,22.30
2018-04-10T11:40:39.869Z,21.50
2018-04-10T11:41:39.904Z,22.30
2018-04-10T11:42:39.949Z,21.20
2018-04-10T11:43:39.987Z,22.20
2018-04-10T11:44:40.032Z,23.30
2018-04-10T11:45:40.071Z,23.00
2018-04-10T11:46:40.115Z,23.20
2018-04-10T11:47:40.157Z,21.90
2018-04-10T11:48:40.208Z,21.70
2018-04-10T11:49:40.243Z,22.00
2018-04-10T11:50:40.285Z,23.10
2018-04-10T11:51:40.330Z,23.70
2018-04-10T11:52:40.371Z,22.70
2018-04-10T11:53:40.876Z,24.30
2018-04-10T11:54:40.487Z,22.70
2018-04-10T11:55:40.500Z,23.40
2018-04-10T11:56:40.541Z,22.20
2018-04-10T11:57:40.584Z,21.90
2018-04-10T11:58:40.636Z,21.90
2018-04-10T11:59:40.673Z,24.60
2018-04-10T12:00:40.716Z,23.60
2018-04-10T12:01:40.756Z,24.00
2018-04-10T12:02:40.802Z,24.60
2018-04-10T12:03:40.841Z,24.80
2018-04-10T12:04:40.884Z,25.30
2018-04-10T12:05:40.926Z,25.00
2018-04-10T12:06:40.971Z,26.40
2018-04-10T12:07:41.011Z,25.60
2018-04-10T12:08:41.054Z,25.80
2018-04-10T12:09:41.099Z,26.10
2018-04-10T12:10:41.140Z,26.50
2018-04-10T12:11:41.182Z,27.40
2018-04-10T12:12:41.226Z,27.40
2018-04-10T12:13:41.275Z,26.30
2018-04-10T12:14:41.314Z,24.70
2018-04-10T12:15:41.355Z,26.50
2018-04-10T12:16:41.407Z,26.90
2018-04-10T12:17:41.439Z,26.10
2018-04-10T12:18:41.483Z,27.20
2018-04-10T12:19:41.529Z,26.40
2018-04-10T12:20:41.568Z,26.10
2018-04-10T12:21:41.609Z,25.80
2018-04-10T12:22:41.708Z,25.70
2018-04-10T12:23:41.707Z,26.50
2018-04-10T12:24:41.740Z,27.20
2018-04-10T12:25:41.789Z,25.90
2018-04-10T12:26:41.824Z,27.30
2018-04-10T12:27:41.873Z,27.30
2018-04-10T12:28:41.910Z,26.80
2018-04-10T12:29:41.952Z,26.00
2018-04-10T12:30:42.003Z,26.30
2018-04-10T12:31:42.042Z,25.30
2018-04-10T12:32:42.082Z,26.40
2018-04-10T12:33:42.124Z,26.00
2018-04-10T12:34:42.167Z,26.10
2018-04-10T12:35:42.210Z,25.20
2018-04-10T12:36:42.284Z,25.00
2018-04-10T12:37:42.297Z,26.90
2018-04-10T12:38:42.338Z,26.60
2018-04-10T12:39:42.382Z,26.40
2018-04-10T12:40:42.423Z,26.10
2018-04-10T12:41:42.476Z,23.20
2018-04-10T12:42:42.513Z,23.50
2018-04-10T12:43:42.554Z,22.60
2018-04-10T12:44:42.597Z,21.20
2018-04-10T12:45:42.640Z,21.70
2018-04-10T12:46:42.684Z,21.10
2018-04-10T12:47:42.728Z,23.70
2018-04-10T12:48:42.770Z,23.80
2018-04-10T12:49:42.811Z,22.70
2018-04-10T12:50:42.862Z,23.00
2018-04-10T12:51:42.899Z,20.30
2018-04-10T12:52:42.958Z,21.50